createdAt,value
2022-12-29T00:01:09.377Z,0.30
2022-12-29T00:04:15.146Z,0.09
2022-12-29T00:07:18.523Z,0.06
2022-12-29T00:10:21.046Z,0.14
2022-12-29T00:13:41.640Z,0.07
2022-12-29T00:16:45.896Z,0.10
2022-12-29T00:20:06.756Z,0.03
2022-12-29T00:23:28.809Z,0.02
2022-12-29T00:26:49.680Z,-0.03
2022-12-29T00:30:11.078Z,-0.06
2022-12-29T00:33:36.965Z,-0.09
2022-12-29T00:36:43.289Z,-0.18
2022-12-29T00:40:04.258Z,-0.12
2022-12-29T00:43:25.695Z,-0.08
2022-12-29T00:46:27.950Z,-0.05
2022-12-29T00:49:31.848Z,0.04
2022-12-29T00:52:34.050Z,0.01
2022-12-29T00:55:40.059Z,-0.09
2022-12-29T00:58:42.376Z,0.00
2022-12-29T01:01:45.046Z,-0.06
2022-12-29T01:04:47.416Z,-0.12
2022-12-29T01:07:50.602Z,-0.16
2022-12-29T01:11:00.732Z,-0.07
2022-12-29T01:14:03.792Z,-0.06
2022-12-29T01:17:06.657Z,0.05
2022-12-29T01:20:11.736Z,0.02
2022-12-29T01:23:14.158Z,0.01
2022-12-29T01:26:17.899Z,0.07
2022-12-29T01:29:20.381Z,0.12
2022-12-29T01:32:22.935Z,0.20
2022-12-29T01:35:25.121Z,0.12
2022-12-29T01:38:27.571Z,0.13
2022-12-29T01:41:30.007Z,0.15
2022-12-29T01:44:52.727Z,0.14
2022-12-29T01:48:00.152Z,0.06
2022-12-29T01:51:02.803Z,-0.02
2022-12-29T01:54:14.703Z,-0.18
2022-12-29T01:57:22.313Z,-0.21
2022-12-29T02:00:24.515Z,-0.31
2022-12-29T02:03:29.834Z,-0.31
2022-12-29T02:06:46.179Z,-0.42
2022-12-29T02:09:52.739Z,-0.43
2022-12-29T02:12:55.171Z,-0.28
2022-12-29T02:16:26.965Z,-0.37
2022-12-29T02:19:38.940Z,-0.33
2022-12-29T02:22:47.616Z,-0.28
2022-12-29T02:26:08.752Z,-0.27
2022-12-29T02:29:36.180Z,-0.28
2022-12-29T02:32:53.605Z,-0.30
2022-12-29T02:36:50.587Z,-0.44
2022-12-29T02:40:25.070Z,-0.28
2022-12-29T02:43:34.362Z,-0.40
2022-12-29T02:46:42.657Z,-0.44
2022-12-29T02:49:54.623Z,-0.58
2022-12-29T02:53:03.060Z,-0.54
2022-12-29T02:56:05.735Z,-0.35
2022-12-29T02:59:08.842Z,-0.35
2022-12-29T03:02:40.271Z,-0.41
2022-12-29T03:05:54.781Z,-0.42
2022-12-29T03:09:19.493Z,-0.38
2022-12-29T03:12:50.853Z,-0.42
2022-12-29T03:16:08.121Z,-0.37
2022-12-29T03:19:22.775Z,-0.37
2022-12-29T03:22:33.480Z,-0.26
2022-12-29T03:25:40.822Z,-0.18
2022-12-29T03:28:52.079Z,-0.22
2022-12-29T03:31:56.067Z,-0.17
2022-12-29T03:34:59.929Z,-0.06
2022-12-29T03:38:28.707Z,-0.07
2022-12-29T03:41:34.012Z,-0.38
2022-12-29T03:44:41.028Z,-0.36
2022-12-29T03:47:44.264Z,-0.27
2022-12-29T03:50:47.153Z,-0.14
2022-12-29T03:53:50.348Z,-0.07
2022-12-29T03:56:52.644Z,-0.19
2022-12-29T03:59:55.746Z,-0.28
2022-12-29T04:02:58.142Z,-0.25
2022-12-29T04:06:01.009Z,-0.21
2022-12-29T04:09:03.961Z,-0.08
2022-12-29T04:12:08.309Z,-0.11
2022-12-29T04:15:10.952Z,-0.11
2022-12-29T04:18:13.894Z,-0.14
2022-12-29T04:21:16.141Z,-0.11
2022-12-29T04:24:20.888Z,-0.05
2022-12-29T04:27:24.227Z,-0.02
2022-12-29T04:30:27.751Z,-0.02
2022-12-29T04:33:30.814Z,-0.11
2022-12-29T04:36:33.918Z,-0.14
2022-12-29T04:39:36.889Z,0.03
2022-12-29T04:42:39.647Z,-0.11
2022-12-29T04:45:47.125Z,-0.02
2022-12-29T04:48:50.201Z,0.08
2022-12-29T04:51:53.536Z,-0.02
2022-12-29T04:54:56.127Z,0.13
2022-12-29T04:57:58.543Z,0.18
2022-12-29T05:01:01.638Z,0.17
2022-12-29T05:04:04.740Z,0.20
2022-12-29T05:07:08.226Z,0.35
2022-12-29T05:10:11.616Z,0.68
2022-12-29T05:13:14.295Z,0.69
2022-12-29T05:16:18.404Z,0.69
2022-12-29T05:19:21.488Z,0.95
2022-12-29T05:22:23.866Z,1.08
2022-12-29T05:25:26.928Z,1.00
2022-12-29T05:28:29.496Z,0.85
2022-12-29T05:31:32.644Z,0.80
2022-12-29T05:34:35.005Z,1.04
2022-12-29T05:37:37.572Z,0.95
2022-12-29T05:40:39.880Z,0.63
2022-12-29T05:43:42.963Z,0.76
2022-12-29T05:46:46.011Z,0.88
2022-12-29T05:49:50.424Z,1.04
2022-12-29T05:52:53.445Z,0.95
2022-12-29T05:55:56.353Z,0.93
2022-12-29T05:58:58.731Z,0.86
2022-12-29T06:02:01.923Z,0.82
2022-12-29T06:05:05.565Z,0.73
2022-12-29T06:08:08.437Z,0.75
2022-12-29T06:11:11.218Z,0.86
2022-12-29T06:14:16.765Z,0.85
2022-12-29T06:17:19.729Z,0.88
2022-12-29T06:20:22.193Z,0.85
2022-12-29T06:23:24.866Z,0.84
2022-12-29T06:26:27.230Z,0.79
2022-12-29T06:29:29.964Z,0.81
2022-12-29T06:32:32.988Z,0.82
2022-12-29T06:35:35.981Z,0.71
2022-12-29T06:38:38.550Z,0.81
2022-12-29T06:41:41.260Z,0.68
2022-12-29T06:44:44.335Z,0.79
2022-12-29T06:47:47.826Z,0.66
2022-12-29T06:50:50.250Z,0.73
2022-12-29T06:53:53.289Z,0.81
2022-12-29T06:56:55.696Z,0.60
2022-12-29T06:59:59.036Z,0.73
2022-12-29T07:03:01.585Z,0.89
2022-12-29T07:06:04.948Z,0.80
2022-12-29T07:09:08.262Z,0.83
2022-12-29T07:12:11.294Z,0.97
2022-12-29T07:15:13.915Z,1.27
2022-12-29T07:18:16.835Z,1.39
2022-12-29T07:21:20.051Z,1.49
2022-12-29T07:24:23.465Z,1.47
2022-12-29T07:27:26.250Z,1.57
2022-12-29T07:30:30.954Z,1.55
2022-12-29T07:33:34.660Z,1.68
2022-12-29T07:36:37.477Z,1.68
2022-12-29T07:39:39.773Z,1.75
2022-12-29T07:42:43.949Z,1.84
2022-12-29T07:45:48.939Z,1.86
2022-12-29T07:48:53.130Z,1.93
2022-12-29T07:51:56.547Z,1.92
2022-12-29T07:55:00.044Z,1.93
2022-12-29T07:58:03.530Z,2.01
2022-12-29T08:01:06.601Z,1.95
2022-12-29T08:04:11.029Z,1.97
2022-12-29T08:07:13.458Z,2.09
2022-12-29T08:10:17.263Z,2.01
2022-12-29T08:13:19.671Z,1.87
2022-12-29T08:16:22.269Z,1.88
2022-12-29T08:19:24.531Z,1.98
2022-12-29T08:22:29.396Z,1.98
2022-12-29T08:25:31.658Z,2.19
2022-12-29T08:28:34.242Z,2.19
2022-12-29T08:31:36.625Z,2.16
2022-12-29T08:34:39.360Z,2.03
2022-12-29T08:37:41.581Z,2.01
2022-12-29T08:40:44.095Z,1.97
2022-12-29T08:43:50.388Z,1.98
2022-12-29T08:46:53.620Z,1.95
2022-12-29T08:49:56.096Z,1.95
2022-12-29T08:52:59.143Z,2.20
2022-12-29T08:56:05.431Z,2.03
2022-12-29T08:59:10.274Z,2.05
2022-12-29T09:02:17.474Z,2.12
2022-12-29T09:05:22.906Z,2.14
2022-12-29T09:08:27.114Z,2.15
2022-12-29T09:11:29.592Z,1.91
2022-12-29T09:14:31.739Z,1.93
2022-12-29T09:17:46.558Z,1.79
2022-12-29T09:20:48.704Z,1.67
2022-12-29T09:23:51.135Z,1.72
2022-12-29T09:26:53.315Z,1.61
2022-12-29T09:29:55.801Z,1.87
2022-12-29T09:32:58.006Z,2.04
2022-12-29T09:36:00.426Z,2.01
2022-12-29T09:39:02.681Z,2.10
2022-12-29T09:42:13.192Z,2.43
2022-12-29T09:45:21.117Z,2.65
2022-12-29T09:48:30.322Z,2.74
2022-12-29T09:51:34.547Z,2.82
2022-12-29T09:55:14.311Z,3.14
2022-12-29T09:58:45.759Z,3.23
2022-12-29T10:02:29.571Z,3.20
2022-12-29T10:05:37.978Z,3.06
2022-12-29T10:08:48.657Z,3.21
2022-12-29T10:11:56.992Z,3.22
2022-12-29T10:15:39.089Z,3.20
2022-12-29T10:18:47.666Z,3.20
2022-12-29T10:22:04.734Z,3.19
2022-12-29T10:25:18.683Z,3.45
2022-12-29T10:28:34.673Z,3.29
2022-12-29T10:31:43.902Z,3.28
2022-12-29T10:34:50.891Z,3.06
2022-12-29T10:38:05.310Z,2.92
2022-12-29T10:41:17.699Z,2.89
2022-12-29T10:44:21.531Z,2.76
2022-12-29T10:47:32.370Z,2.75
2022-12-29T10:50:34.960Z,2.62
2022-12-29T10:53:46.339Z,2.41
2022-12-29T10:56:55.363Z,2.59
2022-12-29T10:59:58.736Z,2.69
2022-12-29T11:03:19.999Z,2.74
2022-12-29T11:06:27.964Z,2.76
2022-12-29T11:09:42.441Z,3.01
2022-12-29T11:13:00.493Z,2.96
2022-12-29T11:16:03.953Z,2.80
2022-12-29T11:19:06.238Z,2.99
2022-12-29T11:22:28.632Z,2.88
2022-12-29T11:25:30.936Z,3.07
2022-12-29T11:28:34.292Z,2.98
2022-12-29T11:31:43.119Z,3.02
2022-12-29T11:34:45.916Z,3.17
2022-12-29T11:37:59.391Z,3.19
2022-12-29T11:41:03.272Z,3.40
2022-12-29T11:44:06.899Z,3.34
2022-12-29T11:47:13.441Z,3.41
2022-12-29T11:50:21.463Z,3.65
2022-12-29T11:53:41.006Z,3.45
2022-12-29T11:56:44.664Z,3.41
2022-12-29T11:59:56.231Z,3.51
2022-12-29T12:03:05.247Z,3.47
2022-12-29T12:06:13.648Z,3.60
2022-12-29T12:09:23.917Z,3.75
2022-12-29T12:12:35.594Z,3.63
2022-12-29T12:15:46.734Z,3.71
2022-12-29T12:19:12.551Z,3.51
2022-12-29T12:22:22.991Z,3.80
2022-12-29T12:25:51.207Z,3.65
2022-12-29T12:28:58.663Z,3.79
2022-12-29T12:32:15.020Z,3.98
2022-12-29T12:35:44.561Z,3.95
2022-12-29T12:38:55.564Z,3.80
2022-12-29T12:42:00.673Z,3.88
2022-12-29T12:45:48.355Z,3.92
2022-12-29T12:49:40.017Z,4.21
2022-12-29T12:53:20.793Z,4.17
2022-12-29T12:56:28.847Z,4.25
2022-12-29T12:59:43.082Z,4.24
2022-12-29T13:03:16.802Z,4.13
2022-12-29T13:06:27.802Z,4.21
2022-12-29T13:09:40.042Z,4.24
2022-12-29T13:12:55.085Z,4.47
2022-12-29T13:16:10.805Z,4.35
2022-12-29T13:19:42.366Z,4.31
2022-12-29T13:22:57.535Z,4.21
2022-12-29T13:26:06.021Z,4.32
2022-12-29T13:29:32.345Z,4.43
2022-12-29T13:33:04.263Z,4.35
2022-12-29T13:36:18.074Z,4.40
2022-12-29T13:39:26.133Z,4.45
2022-12-29T13:42:30.582Z,4.46
2022-12-29T13:45:35.226Z,4.42
2022-12-29T13:48:48.476Z,4.34
2022-12-29T13:51:56.584Z,4.19
2022-12-29T13:55:13.733Z,4.18
2022-12-29T13:58:40.559Z,4.18
2022-12-29T14:01:52.057Z,4.22
2022-12-29T14:05:03.647Z,4.18
2022-12-29T14:08:07.188Z,4.22
2022-12-29T14:11:16.708Z,4.21
2022-12-29T14:14:23.428Z,4.13
2022-12-29T14:17:25.735Z,4.02
2022-12-29T14:20:28.055Z,3.92
2022-12-29T14:23:42.828Z,3.86
2022-12-29T14:26:45.040Z,3.94
2022-12-29T14:29:51.565Z,3.81
2022-12-29T14:33:12.966Z,3.61
2022-12-29T14:36:35.225Z,3.63
2022-12-29T14:39:46.562Z,3.61
2022-12-29T14:42:54.213Z,3.59
2022-12-29T14:46:00.080Z,3.43
2022-12-29T14:49:03.306Z,3.58
2022-12-29T14:52:20.796Z,3.69
2022-12-29T14:55:40.789Z,3.51
2022-12-29T14:58:42.853Z,3.45
2022-12-29T15:01:54.214Z,3.36
2022-12-29T15:05:00.866Z,3.27
2022-12-29T15:08:04.993Z,3.37
2022-12-29T15:11:16.363Z,3.22
2022-12-29T15:14:55.899Z,3.21
2022-12-29T15:17:58.055Z,3.10
2022-12-29T15:21:07.456Z,3.16
2022-12-29T15:24:11.570Z,3.13
2022-12-29T15:27:16.460Z,2.97
2022-12-29T15:30:18.779Z,2.81
2022-12-29T15:33:23.855Z,2.65
2022-12-29T15:36:30.408Z,2.64
2022-12-29T15:39:32.869Z,2.55
2022-12-29T15:42:47.119Z,2.35
2022-12-29T15:45:51.727Z,2.27
2022-12-29T15:48:53.971Z,2.23
2022-12-29T15:51:56.464Z,2.21
2022-12-29T15:54:59.822Z,2.19
2022-12-29T15:58:05.661Z,2.15
2022-12-29T16:01:18.008Z,2.01
2022-12-29T16:04:20.975Z,1.94
2022-12-29T16:07:33.230Z,1.92
2022-12-29T16:10:42.179Z,1.90
2022-12-29T16:13:45.623Z,1.79
2022-12-29T16:16:50.519Z,1.87
2022-12-29T16:19:59.145Z,1.74
2022-12-29T16:23:01.673Z,1.78
2022-12-29T16:26:05.025Z,1.87
2022-12-29T16:29:09.274Z,1.83
2022-12-29T16:32:29.026Z,1.78
2022-12-29T16:35:48.213Z,1.67
2022-12-29T16:38:50.428Z,1.57
2022-12-29T16:41:54.280Z,1.56
2022-12-29T16:45:23.417Z,1.58
2022-12-29T16:48:31.749Z,1.50
2022-12-29T16:51:37.498Z,1.57
2022-12-29T16:54:41.407Z,1.50
2022-12-29T16:57:45.226Z,1.54
2022-12-29T17:00:48.284Z,1.63
2022-12-29T17:03:54.333Z,1.69
2022-12-29T17:06:56.766Z,1.68
2022-12-29T17:09:58.866Z,1.56
2022-12-29T17:13:01.372Z,1.44
2022-12-29T17:16:04.672Z,1.38
2022-12-29T17:19:13.477Z,1.29
2022-12-29T17:22:27.693Z,1.23
2022-12-29T17:25:34.922Z,1.29
2022-12-29T17:28:37.129Z,1.35
2022-12-29T17:31:39.655Z,1.23
2022-12-29T17:34:42.072Z,1.22
2022-12-29T17:37:44.772Z,1.29
2022-12-29T17:40:47.388Z,1.32
2022-12-29T17:43:49.836Z,1.33
2022-12-29T17:46:52.019Z,1.18
2022-12-29T17:49:55.248Z,1.02
2022-12-29T17:53:00.964Z,0.97
2022-12-29T17:56:03.903Z,0.91
2022-12-29T17:59:12.473Z,0.91
2022-12-29T18:02:26.630Z,0.91
2022-12-29T18:05:30.781Z,1.12
2022-12-29T18:08:34.585Z,1.07
2022-12-29T18:11:40.328Z,1.02
2022-12-29T18:14:42.443Z,1.08
2022-12-29T18:17:45.002Z,1.10
2022-12-29T18:20:48.685Z,1.14
2022-12-29T18:23:51.459Z,1.02
2022-12-29T18:26:53.587Z,0.94
2022-12-29T18:29:56.133Z,0.94
2022-12-29T18:32:58.359Z,0.88
2022-12-29T18:36:02.965Z,0.86
2022-12-29T18:39:05.162Z,0.85
2022-12-29T18:42:07.890Z,0.80
2022-12-29T18:45:22.416Z,0.77
2022-12-29T18:48:24.828Z,0.79
2022-12-29T18:51:27.008Z,0.85
2022-12-29T18:54:32.377Z,0.89
2022-12-29T18:57:34.514Z,0.88
2022-12-29T19:00:37.021Z,0.82
2022-12-29T19:03:39.274Z,0.75
2022-12-29T19:06:42.589Z,0.73
2022-12-29T19:09:44.720Z,0.74
2022-12-29T19:12:47.660Z,0.85
2022-12-29T19:15:49.940Z,0.73
2022-12-29T19:19:08.510Z,0.77
2022-12-29T19:22:11.704Z,0.85
2022-12-29T19:25:14.250Z,0.97
2022-12-29T19:28:22.866Z,0.92
2022-12-29T19:31:25.407Z,0.93
2022-12-29T19:34:27.617Z,0.90
2022-12-29T19:37:30.061Z,0.93
2022-12-29T19:40:33.043Z,0.83
2022-12-29T19:43:35.521Z,0.94
2022-12-29T19:46:37.664Z,1.01
2022-12-29T19:49:40.149Z,0.89
2022-12-29T19:52:43.523Z,0.95
2022-12-29T19:55:47.202Z,0.77
2022-12-29T19:58:50.560Z,0.82
2022-12-29T20:01:53.203Z,0.77
2022-12-29T20:04:56.579Z,0.89
2022-12-29T20:07:58.704Z,0.82
2022-12-29T20:11:19.378Z,0.85
2022-12-29T20:14:21.620Z,0.84
2022-12-29T20:17:54.000Z,0.85
2022-12-29T20:20:47.367Z,0.92
2022-12-29T20:23:52.120Z,1.01
2022-12-29T20:26:54.593Z,1.10
2022-12-29T20:29:59.104Z,0.99
2022-12-29T20:33:07.589Z,0.97
2022-12-29T20:36:15.431Z,0.96
2022-12-29T20:39:19.723Z,0.95
2022-12-29T20:42:22.166Z,1.02
2022-12-29T20:45:24.460Z,1.04
2022-12-29T20:48:27.545Z,1.03
2022-12-29T20:51:59.199Z,0.95
2022-12-29T20:54:52.767Z,0.98
2022-12-29T20:58:22.989Z,0.99
2022-12-29T21:01:19.655Z,0.99
2022-12-29T21:04:21.840Z,1.04
2022-12-29T21:07:24.335Z,1.06
2022-12-29T21:10:26.567Z,1.09
2022-12-29T21:13:29.390Z,1.12
2022-12-29T21:16:31.716Z,1.09
2022-12-29T21:19:34.216Z,1.11
2022-12-29T21:22:36.370Z,0.98
2022-12-29T21:25:43.708Z,1.00
2022-12-29T21:28:47.129Z,0.93
2022-12-29T21:31:49.687Z,0.94
2022-12-29T21:34:51.893Z,0.89
2022-12-29T21:37:54.346Z,0.91
2022-12-29T21:40:58.751Z,0.78
2022-12-29T21:44:20.063Z,0.80
2022-12-29T21:47:22.239Z,0.81
2022-12-29T21:50:24.682Z,0.91
2022-12-29T21:53:37.881Z,0.96
2022-12-29T21:56:43.872Z,0.97
2022-12-29T22:00:04.454Z,1.05
2022-12-29T22:03:30.948Z,1.08
2022-12-29T22:06:51.863Z,1.11
2022-12-29T22:10:12.660Z,1.11
2022-12-29T22:13:15.069Z,1.22
2022-12-29T22:16:18.225Z,1.10
2022-12-29T22:19:20.870Z,1.10
2022-12-29T22:22:23.018Z,1.12
2022-12-29T22:25:25.434Z,1.27
2022-12-29T22:28:27.595Z,1.25
2022-12-29T22:31:30.752Z,1.26
2022-12-29T22:34:33.187Z,1.28
2022-12-29T22:37:37.403Z,1.23
2022-12-29T22:40:39.542Z,1.40
2022-12-29T22:43:42.109Z,1.57
2022-12-29T22:46:44.248Z,1.52
2022-12-29T22:49:46.719Z,1.50
2022-12-29T22:52:49.339Z,1.54
2022-12-29T22:56:01.329Z,1.61
2022-12-29T22:59:03.685Z,1.65
2022-12-29T23:02:06.199Z,1.64
2022-12-29T23:05:08.985Z,1.65
2022-12-29T23:08:11.496Z,1.75
2022-12-29T23:11:14.239Z,1.78
2022-12-29T23:14:17.386Z,1.83
2022-12-29T23:17:19.534Z,1.72
2022-12-29T23:20:21.933Z,1.74
2022-12-29T23:23:48.738Z,1.94
2022-12-29T23:26:51.915Z,1.96
2022-12-29T23:29:54.044Z,1.99
2022-12-29T23:32:56.630Z,2.07
2022-12-29T23:35:58.783Z,2.09
2022-12-29T23:39:01.523Z,2.09
2022-12-29T23:42:03.815Z,2.23
2022-12-29T23:45:06.907Z,2.22
2022-12-29T23:48:09.078Z,2.22
2022-12-29T23:51:11.810Z,2.15
2022-12-29T23:54:16.672Z,2.16
2022-12-29T23:57:19.174Z,2.15
